VDPP Airport Information

Runway Information
Runway 05 Length 9843 ft width 144 ft
Elevation 40 ft Threshold ft Heading 46
Runway 23 Length 9843 ft Width 144 ft
Elevation 37 ft Threshold 492 ft Heading 226
Airport Frequencies
Type ACC Name ACC Frequency 127.5 MHZ
Type APP Name APP Frequency 123.8 MHZ
Type ATIS Name ATIS Frequency 127.25 MHZ
Type TWR Name TWR Frequency 118 MHZ
Airport Navaids
Type VOR-DME Name Phnom Penh Frequency 114300 KHZ
Type NDB Name Phnom Penh Frequency 376 KHZ
Airport Weather Information & NOTAM
ADDS - METARS form results

(0838 UTC 01 October 2022)
Data provider http://aviationweather.gov/metar/data/
 
METAR text: VDPP 010830Z 21007KT 9999 SCT015 FEW017CB SCT040 31/24 Q1005 RMK CB:SW/N
Conditions at: VDPP (PHNOM-PENH/POCHE, KH) observed 0830 UTC 01 October 2022
Temperature: 31.0°C (88°F)
Dewpoint: 24.0°C (75°F) [RH = 66%]
Pressure (altimeter): 29.68 inches Hg (1005.0 mb)
Winds: from the SSW (210 degrees) at 8 MPH (7 knots; 3.6 m/s)
Visibility: 6 or more miles (10+ km)
Ceiling: at least 12,000 feet AGL
Clouds: scattered clouds at 1500 feet AGL
few clouds at 1700 feet AGL
scattered clouds at 4000 feet AGL
Weather: no significant weather observed at this time

METAR text: VDPP 010800Z 21007KT 9999 SCT015 FEW017CB SCT040 30/24 Q1005 RMK CB:SW/N
Conditions at: VDPP (PHNOM-PENH/POCHE, KH) observed 0800 UTC 01 October 2022
Temperature: 30.0°C (86°F)
Dewpoint: 24.0°C (75°F) [RH = 70%]
Pressure (altimeter): 29.68 inches Hg (1005.0 mb)
Winds: from the SSW (210 degrees) at 8 MPH (7 knots; 3.6 m/s)
Visibility: 6 or more miles (10+ km)
Ceiling: at least 12,000 feet AGL
Clouds: scattered clouds at 1500 feet AGL
few clouds at 1700 feet AGL
scattered clouds at 4000 feet AGL
Weather: no significant weather observed at this time

Forecast for: VDPP (PHNOM-PENH/POCHE, KH)
Text: TAF VDPP 010500Z 0106/0124 18008KT 9999 SCT017 SCT040
Forecast period: 0600 UTC 01 October 2022 to 0000 UTC 02 October 2022
Forecast type: FROM: standard forecast or significant change
Winds: from the S (180 degrees) at 9 MPH (8 knots; 4.1 m/s)
Visibility: 6 or more miles (10+ km)
Ceiling: at least 12,000 feet AGL
Clouds: scattered clouds at 1700 feet AGL
scattered clouds at 4000 feet AGL
Weather: no significant weather forecast for this period
Text: TEMPO 0107/0112 5000 TSRA SCT015 FEW017CB SCT040
Forecast period: 0700 to 1200 UTC 01 October 2022
Forecast type: TEMPORARY: The following changes expected for less than half the time period
Visibility: 3 miles (5 km)
Ceiling: at least 12,000 feet AGL
Clouds: scattered clouds at 1500 feet AGL
few clouds at 1700 feet AGL
scattered clouds at 4000 feet AGL
Weather: TSRA  (rain associated with thunderstorm(s))